Cover Girl — WCZ3100 — position and weather

sailwx.info

Track history (hours):
 
Tides and Currents Weather Stations Pressure Air Temp Water Temp Dewpoint Dewpoint Depression Visibility Wind Speed Wind Dir Waves Ship Positions

Cover Girl

Owner: RITCHIE, GARY G, NEWPORT BEACH, CA. More information available from US FCC via Universal Licensing System and Coast Guard Vessel Documentation Center.

Last reported at 2017-Nov-14 22:26 UTC. Time now 2017-Nov-18 11:54 UTC.
Position N 32°00' W 116°53'.

Length 22 m.

Type: Pleasure craft. MMSI: 367399740.

Date/timePositionNaut miles runAvg speedWind from/ knotsBaromVisibWave heightAir tempDewpointWater temp
2017-Nov-14 22:26N 32°00' W 116°53'4513.5
2017-Nov-14 19:04N 32°39' W 117°22'111.8
2017-Nov-14 18:59N 32°39' W 117°22'612.3
2017-Nov-14 18:30N 32°45' W 117°25'612.0
2017-Nov-14 18:00N 32°50' W 117°29'612.1
2017-Nov-14 17:29N 32°56' W 117°32'612.1
2017-Nov-14 17:00N 33°01' W 117°35'611.7
2017-Nov-14 16:30N 33°06' W 117°37'611.8
2017-Nov-14 16:00N 33°12' W 117°40'611.7
2017-Nov-14 15:30N 33°17' W 117°43'23 1.3
2017-Nov-13 22:10N 33°37' W 117°56'0 0.0
2017-Nov-13 21:58N 33°37' W 117°56'  
2017-Nov-07 21:46N 33°37' W 117°56'0 0.0
2017-Nov-07 21:22N 33°37' W 117°56'0 0.0
2017-Nov-07 20:28N 33°37' W 117°56'0 0.0
2017-Nov-06 23:58N 33°37' W 117°56'  
Track history (hours):
 
Tides and Currents Weather Stations Pressure Air Temp Water Temp Dewpoint Dewpoint Depression Visibility Wind Speed Wind Dir Waves Ship Positions

Cover Girl

Owner: RITCHIE, GARY G, NEWPORT BEACH, CA. More information available from US FCC via Universal Licensing System and Coast Guard Vessel Documentation Center.

Last reported at 2017-Nov-14 22:26 UTC. Time now 2017-Nov-18 11:54 UTC.
Position N 32°00' W 116°53'.

Length 22 m.

Type: Pleasure craft. MMSI: 367399740.

Date/timePositionNaut miles runAvg speedWind from/ knotsBaromVisibWave heightAir tempDewpointWater temp
2017-Nov-14 22:26N 32°00' W 116°53'4513.5
2017-Nov-14 19:04N 32°39' W 117°22'111.8
2017-Nov-14 18:59N 32°39' W 117°22'612.3
2017-Nov-14 18:30N 32°45' W 117°25'612.0
2017-Nov-14 18:00N 32°50' W 117°29'612.1
2017-Nov-14 17:29N 32°56' W 117°32'612.1
2017-Nov-14 17:00N 33°01' W 117°35'611.7
2017-Nov-14 16:30N 33°06' W 117°37'611.8
2017-Nov-14 16:00N 33°12' W 117°40'611.7
2017-Nov-14 15:30N 33°17' W 117°43'23 1.3
2017-Nov-13 22:10N 33°37' W 117°56'0 0.0
2017-Nov-13 21:58N 33°37' W 117°56'  
2017-Nov-07 21:46N 33°37' W 117°56'0 0.0
2017-Nov-07 21:22N 33°37' W 117°56'0 0.0
2017-Nov-07 20:28N 33°37' W 117°56'0 0.0
2017-Nov-06 23:58N 33°37' W 117°56'  

Dump ship's entire track history